sensor_id;sensor_type;location;lat;lon;timestamp;P1;durP1;ratioP1;P2;durP2;ratioP2
73421;SDS011;61637;47.760;-122.022;2022-08-19T00:00:01;9.4;;;3.9;;
73421;SDS011;61637;47.760;-122.022;2022-08-19T00:02:01;8.9;;;3.9;;
73421;SDS011;61637;47.760;-122.022;2022-08-19T00:04:04;8.0;;;4.1;;
73421;SDS011;61637;47.760;-122.022;2022-08-19T00:06:01;10.7;;;4.0;;
73421;SDS011;61637;47.760;-122.022;2022-08-19T00:08:00;10.9;;;3.8;;
73421;SDS011;61637;47.760;-122.022;2022-08-19T00:10:01;12.5;;;4.1;;
73421;SDS011;61637;47.760;-122.022;2022-08-19T00:12:02;8.7;;;4.2;;
73421;SDS011;61637;47.760;-122.022;2022-08-19T00:14:01;10.1;;;3.7;;
73421;SDS011;61637;47.760;-122.022;2022-08-19T00:16:02;10.4;;;3.9;;
73421;SDS011;61637;47.760;-122.022;2022-08-19T00:18:01;9.5;;;3.7;;
73421;SDS011;61637;47.760;-122.022;2022-08-19T00:20:00;8.4;;;3.8;;
73421;SDS011;61637;47.760;-122.022;2022-08-19T00:22:00;11.4;;;3.8;;
73421;SDS011;61637;47.760;-122.022;2022-08-19T00:24:00;9.5;;;3.9;;
73421;SDS011;61637;47.760;-122.022;2022-08-19T00:26:00;11.2;;;3.9;;
73421;SDS011;61637;47.760;-122.022;2022-08-19T00:28:01;11.0;;;4.1;;
73421;SDS011;61637;47.760;-122.022;2022-08-19T00:30:01;10.3;;;4.1;;
73421;SDS011;61637;47.760;-122.022;2022-08-19T00:32:00;10.5;;;3.7;;
73421;SDS011;61637;47.760;-122.022;2022-08-19T00:34:01;10.9;;;4.0;;
73421;SDS011;61637;47.760;-122.022;2022-08-19T00:36:02;13.6;;;4.1;;
73421;SDS011;61637;47.760;-122.022;2022-08-19T00:38:00;9.3;;;3.9;;
73421;SDS011;61637;47.760;-122.022;2022-08-19T00:40:04;8.1;;;3.7;;
73421;SDS011;61637;47.760;-122.022;2022-08-19T00:42:01;8.3;;;3.9;;
73421;SDS011;61637;47.760;-122.022;2022-08-19T00:44:03;14.2;;;4.3;;
73421;SDS011;61637;47.760;-122.022;2022-08-19T00:46:00;10.2;;;4.1;;
73421;SDS011;61637;47.760;-122.022;2022-08-19T00:48:00;11.3;;;4.0;;
73421;SDS011;61637;47.760;-122.022;2022-08-19T00:50:00;10.2;;;4.3;;
73421;SDS011;61637;47.760;-122.022;2022-08-19T00:52:04;11.2;;;4.2;;
73421;SDS011;61637;47.760;-122.022;2022-08-19T00:54:02;11.8;;;4.1;;
73421;SDS011;61637;47.760;-122.022;2022-08-19T00:56:02;9.3;;;3.9;;
73421;SDS011;61637;47.760;-122.022;2022-08-19T00:58:05;8.9;;;4.0;;
73421;SDS011;61637;47.760;-122.022;2022-08-19T01:00:03;12.2;;;4.1;;
73421;SDS011;61637;47.760;-122.022;2022-08-19T01:02:00;10.0;;;4.0;;
73421;SDS011;61637;47.760;-122.022;2022-08-19T01:04:01;12.6;;;3.9;;
73421;SDS011;61637;47.760;-122.022;2022-08-19T01:06:01;11.1;;;3.9;;
73421;SDS011;61637;47.760;-122.022;2022-08-19T01:08:03;13.9;;;4.3;;
73421;SDS011;61637;47.760;-122.022;2022-08-19T01:10:02;11.9;;;4.1;;
73421;SDS011;61637;47.760;-122.022;2022-08-19T01:12:01;9.8;;;4.2;;
73421;SDS011;61637;47.760;-122.022;2022-08-19T01:14:01;12.3;;;4.4;;
73421;SDS011;61637;47.760;-122.022;2022-08-19T01:16:04;7.8;;;4.2;;
73421;SDS011;61637;47.760;-122.022;2022-08-19T01:18:05;8.7;;;4.0;;
73421;SDS011;61637;47.760;-122.022;2022-08-19T01:20:02;11.0;;;4.0;;
73421;SDS011;61637;47.760;-122.022;2022-08-19T01:22:04;11.8;;;4.2;;
73421;SDS011;61637;47.760;-122.022;2022-08-19T01:24:01;16.2;;;4.1;;
73421;SDS011;61637;47.760;-122.022;2022-08-19T01:26:00;11.0;;;4.0;;
73421;SDS011;61637;47.760;-122.022;2022-08-19T01:28:02;12.5;;;4.3;;
73421;SDS011;61637;47.760;-122.022;2022-08-19T01:30:01;11.3;;;4.1;;
73421;SDS011;61637;47.760;-122.022;2022-08-19T01:32:01;10.0;;;4.2;;
73421;SDS011;61637;47.760;-122.022;2022-08-19T01:34:02;8.7;;;4.0;;
73421;SDS011;61637;47.760;-122.022;2022-08-19T01:36:05;9.1;;;4.1;;
73421;SDS011;61637;47.760;-122.022;2022-08-19T01:38:04;8.9;;;3.9;;
73421;SDS011;61637;47.760;-122.022;2022-08-19T01:40:01;9.0;;;4.0;;
73421;SDS011;61637;47.760;-122.022;2022-08-19T01:42:00;6.8;;;3.6;;
73421;SDS011;61637;47.760;-122.022;2022-08-19T01:44:02;10.2;;;3.9;;
73421;SDS011;61637;47.760;-122.022;2022-08-19T01:46:00;10.2;;;3.9;;
73421;SDS011;61637;47.760;-122.022;2022-08-19T01:48:01;9.8;;;3.5;;
73421;SDS011;61637;47.760;-122.022;2022-08-19T01:50:00;9.2;;;4.0;;
73421;SDS011;61637;47.760;-122.022;2022-08-19T01:52:02;13.1;;;3.8;;
73421;SDS011;61637;47.760;-122.022;2022-08-19T01:54:00;12.3;;;3.8;;
73421;SDS011;61637;47.760;-122.022;2022-08-19T01:56:02;8.7;;;3.8;;
73421;SDS011;61637;47.760;-122.022;2022-08-19T01:58:02;12.5;;;3.9;;
73421;SDS011;61637;47.760;-122.022;2022-08-19T02:00:01;9.0;;;4.0;;
73421;SDS011;61637;47.760;-122.022;2022-08-19T02:02:01;11.5;;;3.9;;
73421;SDS011;61637;47.760;-122.022;2022-08-19T02:04:02;11.6;;;4.1;;
73421;SDS011;61637;47.760;-122.022;2022-08-19T02:06:03;9.9;;;4.0;;
73421;SDS011;61637;47.760;-122.022;2022-08-19T02:08:01;10.0;;;4.0;;
73421;SDS011;61637;47.760;-122.022;2022-08-19T02:10:02;7.6;;;3.8;;
73421;SDS011;61637;47.760;-122.022;2022-08-19T02:12:00;9.7;;;4.0;;
73421;SDS011;61637;47.760;-122.022;2022-08-19T02:14:03;10.3;;;4.1;;
73421;SDS011;61637;47.760;-122.022;2022-08-19T02:16:01;9.9;;;4.0;;
73421;SDS011;61637;47.760;-122.022;2022-08-19T02:18:01;11.9;;;3.9;;
73421;SDS011;61637;47.760;-122.022;2022-08-19T02:20:01;10.9;;;3.7;;
73421;SDS011;61637;47.760;-122.022;2022-08-19T02:22:00;9.1;;;4.1;;
73421;SDS011;61637;47.760;-122.022;2022-08-19T02:24:01;8.6;;;4.0;;
73421;SDS011;61637;47.760;-122.022;2022-08-19T02:26:00;9.9;;;3.8;;
73421;SDS011;61637;47.760;-122.022;2022-08-19T02:28:01;10.8;;;4.1;;
73421;SDS011;61637;47.760;-122.022;2022-08-19T02:30:03;12.2;;;3.8;;
73421;SDS011;61637;47.760;-122.022;2022-08-19T02:32:00;10.2;;;3.6;;
73421;SDS011;61637;47.760;-122.022;2022-08-19T02:34:01;8.8;;;3.8;;
73421;SDS011;61637;47.760;-122.022;2022-08-19T02:36:03;11.2;;;3.8;;
73421;SDS011;61637;47.760;-122.022;2022-08-19T02:38:01;12.8;;;3.8;;
73421;SDS011;61637;47.760;-122.022;2022-08-19T02:40:02;13.4;;;3.6;;
73421;SDS011;61637;47.760;-122.022;2022-08-19T02:42:00;14.2;;;4.0;;
73421;SDS011;61637;47.760;-122.022;2022-08-19T02:44:02;16.7;;;3.9;;
73421;SDS011;61637;47.760;-122.022;2022-08-19T02:46:01;13.9;;;4.3;;
73421;SDS011;61637;47.760;-122.022;2022-08-19T02:48:01;13.7;;;4.1;;
73421;SDS011;61637;47.760;-122.022;2022-08-19T02:50:02;9.2;;;3.9;;
73421;SDS011;61637;47.760;-122.022;2022-08-19T02:52:01;10.7;;;4.0;;
73421;SDS011;61637;47.760;-122.022;2022-08-19T02:54:01;13.3;;;4.2;;
73421;SDS011;61637;47.760;-122.022;2022-08-19T02:56:00;14.7;;;3.9;;
73421;SDS011;61637;47.760;-122.022;2022-08-19T02:58:01;17.1;;;4.3;;
73421;SDS011;61637;47.760;-122.022;2022-08-19T03:00:03;10.1;;;3.8;;
73421;SDS011;61637;47.760;-122.022;2022-08-19T03:02:01;14.3;;;4.1;;
73421;SDS011;61637;47.760;-122.022;2022-08-19T03:04:05;10.9;;;4.0;;
73421;SDS011;61637;47.760;-122.022;2022-08-19T03:06:05;9.9;;;4.1;;
73421;SDS011;61637;47.760;-122.022;2022-08-19T03:08:01;9.3;;;4.0;;
73421;SDS011;61637;47.760;-122.022;2022-08-19T03:10:01;10.1;;;3.8;;
73421;SDS011;61637;47.760;-122.022;2022-08-19T03:12:00;12.4;;;4.0;;
73421;SDS011;61637;47.760;-122.022;2022-08-19T03:14:02;8.9;;;3.9;;
73421;SDS011;61637;47.760;-122.022;2022-08-19T03:16:05;9.7;;;3.9;;
73421;SDS011;61637;47.760;-122.022;2022-08-19T03:18:01;14.6;;;4.1;;
73421;SDS011;61637;47.760;-122.022;2022-08-19T03:20:01;9.9;;;3.9;;
73421;SDS011;61637;47.760;-122.022;2022-08-19T03:22:00;11.4;;;3.9;;
73421;SDS011;61637;47.760;-122.022;2022-08-19T03:24:03;10.8;;;3.9;;
73421;SDS011;61637;47.760;-122.022;2022-08-19T03:26:04;10.3;;;4.0;;
73421;SDS011;61637;47.760;-122.022;2022-08-19T03:28:01;8.4;;;4.1;;
73421;SDS011;61637;47.760;-122.022;2022-08-19T03:30:01;9.8;;;4.0;;
73421;SDS011;61637;47.760;-122.022;2022-08-19T03:32:04;10.4;;;3.8;;
73421;SDS011;61637;47.760;-122.022;2022-08-19T03:34:00;9.7;;;3.6;;
73421;SDS011;61637;47.760;-122.022;2022-08-19T03:36:05;13.5;;;4.1;;
73421;SDS011;61637;47.760;-122.022;2022-08-19T03:38:00;10.8;;;3.9;;
73421;SDS011;61637;47.760;-122.022;2022-08-19T03:40:02;8.9;;;3.8;;
73421;SDS011;61637;47.760;-122.022;2022-08-19T03:42:01;10.2;;;3.7;;
73421;SDS011;61637;47.760;-122.022;2022-08-19T03:44:00;11.0;;;3.8;;
73421;SDS011;61637;47.760;-122.022;2022-08-19T03:46:03;10.8;;;4.1;;
73421;SDS011;61637;47.760;-122.022;2022-08-19T03:48:00;10.5;;;3.9;;
73421;SDS011;61637;47.760;-122.022;2022-08-19T03:50:00;8.9;;;3.6;;
73421;SDS011;61637;47.760;-122.022;2022-08-19T03:52:01;14.1;;;4.1;;
73421;SDS011;61637;47.760;-122.022;2022-08-19T03:54:03;14.9;;;4.2;;
73421;SDS011;61637;47.760;-122.022;2022-08-19T03:56:01;13.5;;;4.1;;
73421;SDS011;61637;47.760;-122.022;2022-08-19T03:58:00;11.9;;;3.9;;
73421;SDS011;61637;47.760;-122.022;2022-08-19T04:00:00;10.3;;;4.0;;
73421;SDS011;61637;47.760;-122.022;2022-08-19T04:02:06;11.7;;;4.3;;
73421;SDS011;61637;47.760;-122.022;2022-08-19T04:04:02;9.4;;;4.2;;
73421;SDS011;61637;47.760;-122.022;2022-08-19T04:06:10;11.8;;;4.2;;
73421;SDS011;61637;47.760;-122.022;2022-08-19T04:08:00;10.8;;;4.2;;
73421;SDS011;61637;47.760;-122.022;2022-08-19T04:10:00;11.6;;;3.8;;
73421;SDS011;61637;47.760;-122.022;2022-08-19T04:12:00;10.7;;;4.1;;
73421;SDS011;61637;47.760;-122.022;2022-08-19T04:14:01;9.5;;;4.1;;
73421;SDS011;61637;47.760;-122.022;2022-08-19T04:16:01;13.7;;;3.7;;
73421;SDS011;61637;47.760;-122.022;2022-08-19T04:18:01;8.7;;;3.9;;
73421;SDS011;61637;47.760;-122.022;2022-08-19T04:20:01;8.7;;;3.6;;
73421;SDS011;61637;47.760;-122.022;2022-08-19T04:22:02;9.8;;;4.0;;
73421;SDS011;61637;47.760;-122.022;2022-08-19T04:24:01;10.7;;;3.9;;
73421;SDS011;61637;47.760;-122.022;2022-08-19T04:26:01;10.7;;;3.9;;
73421;SDS011;61637;47.760;-122.022;2022-08-19T04:28:01;10.7;;;4.1;;
73421;SDS011;61637;47.760;-122.022;2022-08-19T04:30:01;9.1;;;3.9;;
73421;SDS011;61637;47.760;-122.022;2022-08-19T04:32:01;9.0;;;4.0;;
73421;SDS011;61637;47.760;-122.022;2022-08-19T04:34:04;8.6;;;3.8;;
73421;SDS011;61637;47.760;-122.022;2022-08-19T04:36:00;9.3;;;3.7;;
73421;SDS011;61637;47.760;-122.022;2022-08-19T04:38:00;8.9;;;4.1;;
73421;SDS011;61637;47.760;-122.022;2022-08-19T04:40:04;11.1;;;3.9;;
73421;SDS011;61637;47.760;-122.022;2022-08-19T04:42:01;10.5;;;3.6;;
73421;SDS011;61637;47.760;-122.022;2022-08-19T04:44:00;8.1;;;3.8;;
73421;SDS011;61637;47.760;-122.022;2022-08-19T04:46:05;9.5;;;4.2;;
73421;SDS011;61637;47.760;-122.022;2022-08-19T04:48:00;7.9;;;4.0;;
73421;SDS011;61637;47.760;-122.022;2022-08-19T04:50:00;10.1;;;4.0;;
73421;SDS011;61637;47.760;-122.022;2022-08-19T04:52:01;9.0;;;3.8;;
73421;SDS011;61637;47.760;-122.022;2022-08-19T04:54:02;9.9;;;3.8;;
73421;SDS011;61637;47.760;-122.022;2022-08-19T04:56:06;10.5;;;3.8;;
73421;SDS011;61637;47.760;-122.022;2022-08-19T04:58:01;10.1;;;3.7;;
73421;SDS011;61637;47.760;-122.022;2022-08-19T05:00:00;10.6;;;4.1;;
73421;SDS011;61637;47.760;-122.022;2022-08-19T05:02:01;9.9;;;4.1;;
73421;SDS011;61637;47.760;-122.022;2022-08-19T05:04:04;9.9;;;3.7;;
73421;SDS011;61637;47.760;-122.022;2022-08-19T05:06:05;11.5;;;4.1;;
73421;SDS011;61637;47.760;-122.022;2022-08-19T05:08:01;10.5;;;3.9;;
73421;SDS011;61637;47.760;-122.022;2022-08-19T05:10:01;12.4;;;3.9;;
73421;SDS011;61637;47.760;-122.022;2022-08-19T05:12:00;8.7;;;4.0;;
73421;SDS011;61637;47.760;-122.022;2022-08-19T05:14:01;8.3;;;3.6;;
73421;SDS011;61637;47.760;-122.022;2022-08-19T05:16:00;10.3;;;3.9;;
73421;SDS011;61637;47.760;-122.022;2022-08-19T05:18:00;8.3;;;3.6;;
73421;SDS011;61637;47.760;-122.022;2022-08-19T05:20:02;10.8;;;3.6;;
73421;SDS011;61637;47.760;-122.022;2022-08-19T05:22:01;11.6;;;4.0;;
73421;SDS011;61637;47.760;-122.022;2022-08-19T05:24:00;11.5;;;3.7;;
73421;SDS011;61637;47.760;-122.022;2022-08-19T05:26:01;10.3;;;4.0;;
73421;SDS011;61637;47.760;-122.022;2022-08-19T05:28:00;11.0;;;4.0;;
73421;SDS011;61637;47.760;-122.022;2022-08-19T05:30:01;9.8;;;4.1;;
73421;SDS011;61637;47.760;-122.022;2022-08-19T05:32:02;10.1;;;3.6;;
73421;SDS011;61637;47.760;-122.022;2022-08-19T05:34:02;10.4;;;4.1;;
73421;SDS011;61637;47.760;-122.022;2022-08-19T05:36:01;10.2;;;4.2;;
73421;SDS011;61637;47.760;-122.022;2022-08-19T05:38:01;10.6;;;4.2;;
73421;SDS011;61637;47.760;-122.022;2022-08-19T05:40:00;10.4;;;3.9;;
73421;SDS011;61637;47.760;-122.022;2022-08-19T05:42:03;10.2;;;4.2;;
73421;SDS011;61637;47.760;-122.022;2022-08-19T05:44:03;10.8;;;3.8;;
73421;SDS011;61637;47.760;-122.022;2022-08-19T05:46:00;10.1;;;3.8;;
73421;SDS011;61637;47.760;-122.022;2022-08-19T05:48:00;10.4;;;3.8;;
73421;SDS011;61637;47.760;-122.022;2022-08-19T05:50:01;16.8;;;4.1;;
73421;SDS011;61637;47.760;-122.022;2022-08-19T05:52:02;10.1;;;3.9;;
73421;SDS011;61637;47.760;-122.022;2022-08-19T05:54:00;9.5;;;4.2;;
73421;SDS011;61637;47.760;-122.022;2022-08-19T05:56:04;12.5;;;3.8;;
73421;SDS011;61637;47.760;-122.022;2022-08-19T05:58:00;8.2;;;3.8;;
73421;SDS011;61637;47.760;-122.022;2022-08-19T06:00:00;11.0;;;4.2;;
73421;SDS011;61637;47.760;-122.022;2022-08-19T06:02:02;10.8;;;4.1;;
73421;SDS011;61637;47.760;-122.022;2022-08-19T06:04:02;11.0;;;4.1;;
73421;SDS011;61637;47.760;-122.022;2022-08-19T06:06:02;10.3;;;3.8;;
73421;SDS011;61637;47.760;-122.022;2022-08-19T06:08:01;8.6;;;3.9;;
73421;SDS011;61637;47.760;-122.022;2022-08-19T06:10:01;8.9;;;4.1;;
73421;SDS011;61637;47.760;-122.022;2022-08-19T06:12:01;9.0;;;4.0;;
73421;SDS011;61637;47.760;-122.022;2022-08-19T06:14:03;9.5;;;4.0;;
73421;SDS011;61637;47.760;-122.022;2022-08-19T06:16:00;13.2;;;3.9;;
73421;SDS011;61637;47.760;-122.022;2022-08-19T06:18:00;11.9;;;4.4;;
73421;SDS011;61637;47.760;-122.022;2022-08-19T06:20:01;8.3;;;4.0;;
73421;SDS011;61637;47.760;-122.022;2022-08-19T06:22:00;13.0;;;3.7;;
73421;SDS011;61637;47.760;-122.022;2022-08-19T06:24:00;9.0;;;3.7;;
73421;SDS011;61637;47.760;-122.022;2022-08-19T06:26:01;8.5;;;4.0;;
73421;SDS011;61637;47.760;-122.022;2022-08-19T06:28:00;10.7;;;4.1;;
73421;SDS011;61637;47.760;-122.022;2022-08-19T06:30:02;9.8;;;4.1;;
73421;SDS011;61637;47.760;-122.022;2022-08-19T06:32:02;9.3;;;4.0;;
73421;SDS011;61637;47.760;-122.022;2022-08-19T06:34:01;16.4;;;4.3;;
73421;SDS011;61637;47.760;-122.022;2022-08-19T06:36:00;9.8;;;4.3;;
73421;SDS011;61637;47.760;-122.022;2022-08-19T06:38:01;9.5;;;4.1;;
73421;SDS011;61637;47.760;-122.022;2022-08-19T06:40:00;13.9;;;4.3;;
73421;SDS011;61637;47.760;-122.022;2022-08-19T06:42:03;10.6;;;4.4;;
73421;SDS011;61637;47.760;-122.022;2022-08-19T06:44:03;11.3;;;4.2;;
73421;SDS011;61637;47.760;-122.022;2022-08-19T06:46:00;13.4;;;4.3;;
73421;SDS011;61637;47.760;-122.022;2022-08-19T06:48:00;9.7;;;4.1;;
73421;SDS011;61637;47.760;-122.022;2022-08-19T06:50:03;9.8;;;4.4;;
73421;SDS011;61637;47.760;-122.022;2022-08-19T06:52:01;8.8;;;4.1;;
73421;SDS011;61637;47.760;-122.022;2022-08-19T06:54:00;8.8;;;4.1;;
73421;SDS011;61637;47.760;-122.022;2022-08-19T06:56:00;9.6;;;4.5;;
73421;SDS011;61637;47.760;-122.022;2022-08-19T06:58:01;10.9;;;4.2;;
73421;SDS011;61637;47.760;-122.022;2022-08-19T07:00:02;10.6;;;4.4;;
73421;SDS011;61637;47.760;-122.022;2022-08-19T07:02:04;11.6;;;4.3;;
73421;SDS011;61637;47.760;-122.022;2022-08-19T07:04:00;15.1;;;4.3;;
73421;SDS011;61637;47.760;-122.022;2022-08-19T07:06:02;9.6;;;4.3;;
73421;SDS011;61637;47.760;-122.022;2022-08-19T07:08:00;12.0;;;4.2;;
73421;SDS011;61637;47.760;-122.022;2022-08-19T07:10:00;8.8;;;4.3;;
73421;SDS011;61637;47.760;-122.022;2022-08-19T07:12:00;10.3;;;4.2;;
73421;SDS011;61637;47.760;-122.022;2022-08-19T07:14:02;15.0;;;4.5;;
73421;SDS011;61637;47.760;-122.022;2022-08-19T07:16:03;11.0;;;4.4;;
73421;SDS011;61637;47.760;-122.022;2022-08-19T07:18:00;12.4;;;4.5;;
73421;SDS011;61637;47.760;-122.022;2022-08-19T07:20:01;11.1;;;4.3;;
73421;SDS011;61637;47.760;-122.022;2022-08-19T07:22:03;10.4;;;4.4;;
73421;SDS011;61637;47.760;-122.022;2022-08-19T07:24:00;10.4;;;4.0;;
73421;SDS011;61637;47.760;-122.022;2022-08-19T07:26:05;12.3;;;4.6;;
73421;SDS011;61637;47.760;-122.022;2022-08-19T07:28:00;11.0;;;3.9;;
73421;SDS011;61637;47.760;-122.022;2022-08-19T07:30:01;11.6;;;4.6;;
73421;SDS011;61637;47.760;-122.022;2022-08-19T07:32:02;10.0;;;4.4;;
73421;SDS011;61637;47.760;-122.022;2022-08-19T07:34:00;10.3;;;4.3;;
73421;SDS011;61637;47.760;-122.022;2022-08-19T07:36:00;8.9;;;4.2;;
73421;SDS011;61637;47.760;-122.022;2022-08-19T07:38:01;9.9;;;4.5;;
73421;SDS011;61637;47.760;-122.022;2022-08-19T07:40:00;11.2;;;4.8;;
73421;SDS011;61637;47.760;-122.022;2022-08-19T07:42:04;10.3;;;4.6;;
73421;SDS011;61637;47.760;-122.022;2022-08-19T07:44:01;9.8;;;4.3;;
73421;SDS011;61637;47.760;-122.022;2022-08-19T07:46:00;10.5;;;4.2;;
73421;SDS011;61637;47.760;-122.022;2022-08-19T07:48:00;9.5;;;4.0;;
73421;SDS011;61637;47.760;-122.022;2022-08-19T07:50:02;8.9;;;4.4;;
73421;SDS011;61637;47.760;-122.022;2022-08-19T07:52:05;11.6;;;4.7;;
73421;SDS011;61637;47.760;-122.022;2022-08-19T07:54:00;8.8;;;4.3;;
73421;SDS011;61637;47.760;-122.022;2022-08-19T07:56:01;8.9;;;4.6;;
73421;SDS011;61637;47.760;-122.022;2022-08-19T07:58:01;9.7;;;4.3;;
73421;SDS011;61637;47.760;-122.022;2022-08-19T08:00:00;12.7;;;4.5;;
73421;SDS011;61637;47.760;-122.022;2022-08-19T08:02:01;11.1;;;4.5;;
73421;SDS011;61637;47.760;-122.022;2022-08-19T08:04:00;10.9;;;4.5;;
73421;SDS011;61637;47.760;-122.022;2022-08-19T08:06:01;12.5;;;4.5;;
73421;SDS011;61637;47.760;-122.022;2022-08-19T08:08:00;10.6;;;4.5;;
73421;SDS011;61637;47.760;-122.022;2022-08-19T08:10:03;9.9;;;4.6;;
73421;SDS011;61637;47.760;-122.022;2022-08-19T08:12:03;10.7;;;5.2;;
73421;SDS011;61637;47.760;-122.022;2022-08-19T08:14:01;10.1;;;4.7;;
73421;SDS011;61637;47.760;-122.022;2022-08-19T08:16:02;8.9;;;4.7;;
73421;SDS011;61637;47.760;-122.022;2022-08-19T08:18:01;9.0;;;4.4;;
73421;SDS011;61637;47.760;-122.022;2022-08-19T08:20:00;10.2;;;4.6;;
73421;SDS011;61637;47.760;-122.022;2022-08-19T08:22:02;9.0;;;4.5;;
73421;SDS011;61637;47.760;-122.022;2022-08-19T08:24:01;12.8;;;4.5;;
73421;SDS011;61637;47.760;-122.022;2022-08-19T08:26:01;12.8;;;4.5;;
73421;SDS011;61637;47.760;-122.022;2022-08-19T08:28:01;11.4;;;4.8;;
73421;SDS011;61637;47.760;-122.022;2022-08-19T08:30:00;10.1;;;4.5;;
73421;SDS011;61637;47.760;-122.022;2022-08-19T08:32:01;10.7;;;4.8;;
73421;SDS011;61637;47.760;-122.022;2022-08-19T08:34:00;10.6;;;5.1;;
73421;SDS011;61637;47.760;-122.022;2022-08-19T08:36:02;12.1;;;4.7;;
73421;SDS011;61637;47.760;-122.022;2022-08-19T08:38:02;9.5;;;4.4;;
73421;SDS011;61637;47.760;-122.022;2022-08-19T08:40:03;9.9;;;4.9;;
73421;SDS011;61637;47.760;-122.022;2022-08-19T08:42:07;10.7;;;4.6;;
73421;SDS011;61637;47.760;-122.022;2022-08-19T08:44:01;10.6;;;4.4;;
73421;SDS011;61637;47.760;-122.022;2022-08-19T08:46:04;9.3;;;4.4;;
73421;SDS011;61637;47.760;-122.022;2022-08-19T08:48:07;9.7;;;4.6;;
73421;SDS011;61637;47.760;-122.022;2022-08-19T08:50:05;9.6;;;4.3;;
73421;SDS011;61637;47.760;-122.022;2022-08-19T08:52:04;12.5;;;4.6;;
73421;SDS011;61637;47.760;-122.022;2022-08-19T08:54:02;8.7;;;4.3;;
73421;SDS011;61637;47.760;-122.022;2022-08-19T08:56:02;9.5;;;4.5;;
73421;SDS011;61637;47.760;-122.022;2022-08-19T08:58:04;9.7;;;4.3;;
73421;SDS011;61637;47.760;-122.022;2022-08-19T09:00:04;9.7;;;5.0;;
73421;SDS011;61637;47.760;-122.022;2022-08-19T09:02:01;11.4;;;4.8;;
73421;SDS011;61637;47.760;-122.022;2022-08-19T09:04:02;11.0;;;4.2;;
73421;SDS011;61637;47.760;-122.022;2022-08-19T09:06:03;8.9;;;4.3;;
73421;SDS011;61637;47.760;-122.022;2022-08-19T09:08:07;11.8;;;4.4;;
73421;SDS011;61637;47.760;-122.022;2022-08-19T09:10:07;13.2;;;4.5;;
73421;SDS011;61637;47.760;-122.022;2022-08-19T09:12:08;12.5;;;5.1;;
73421;SDS011;61637;47.760;-122.022;2022-08-19T09:14:12;9.6;;;4.6;;
73421;SDS011;61637;47.760;-122.022;2022-08-19T09:16:06;9.9;;;4.9;;
73421;SDS011;61637;47.760;-122.022;2022-08-19T09:18:02;10.5;;;4.4;;
73421;SDS011;61637;47.760;-122.022;2022-08-19T09:20:04;10.4;;;4.5;;
73421;SDS011;61637;47.760;-122.022;2022-08-19T09:22:00;12.9;;;4.8;;
73421;SDS011;61637;47.760;-122.022;2022-08-19T09:24:02;12.3;;;5.1;;
73421;SDS011;61637;47.760;-122.022;2022-08-19T09:26:01;11.1;;;5.1;;
73421;SDS011;61637;47.760;-122.022;2022-08-19T09:28:01;11.9;;;4.5;;
73421;SDS011;61637;47.760;-122.022;2022-08-19T09:30:01;11.3;;;4.8;;
73421;SDS011;61637;47.760;-122.022;2022-08-19T09:32:00;10.0;;;4.6;;
73421;SDS011;61637;47.760;-122.022;2022-08-19T09:34:00;14.3;;;4.6;;
73421;SDS011;61637;47.760;-122.022;2022-08-19T09:36:02;11.1;;;4.8;;
73421;SDS011;61637;47.760;-122.022;2022-08-19T09:38:01;11.7;;;4.5;;
73421;SDS011;61637;47.760;-122.022;2022-08-19T09:40:00;10.2;;;4.7;;
73421;SDS011;61637;47.760;-122.022;2022-08-19T09:42:01;10.1;;;4.5;;
73421;SDS011;61637;47.760;-122.022;2022-08-19T09:44:00;8.8;;;4.3;;
73421;SDS011;61637;47.760;-122.022;2022-08-19T09:46:01;11.8;;;4.6;;
73421;SDS011;61637;47.760;-122.022;2022-08-19T09:48:00;8.2;;;4.5;;
73421;SDS011;61637;47.760;-122.022;2022-08-19T09:50:01;10.2;;;4.4;;
73421;SDS011;61637;47.760;-122.022;2022-08-19T09:52:01;10.9;;;4.3;;
73421;SDS011;61637;47.760;-122.022;2022-08-19T09:54:02;9.4;;;4.2;;
73421;SDS011;61637;47.760;-122.022;2022-08-19T09:56:01;8.3;;;4.0;;
73421;SDS011;61637;47.760;-122.022;2022-08-19T09:58:02;9.3;;;4.1;;
73421;SDS011;61637;47.760;-122.022;2022-08-19T10:00:01;9.5;;;4.2;;
73421;SDS011;61637;47.760;-122.022;2022-08-19T10:02:01;13.1;;;4.5;;
73421;SDS011;61637;47.760;-122.022;2022-08-19T10:04:01;9.0;;;4.6;;
73421;SDS011;61637;47.760;-122.022;2022-08-19T10:06:03;11.1;;;5.0;;
73421;SDS011;61637;47.760;-122.022;2022-08-19T10:08:00;7.2;;;4.4;;
73421;SDS011;61637;47.760;-122.022;2022-08-19T10:10:00;11.0;;;4.7;;
73421;SDS011;61637;47.760;-122.022;2022-08-19T10:12:01;9.6;;;4.6;;
73421;SDS011;61637;47.760;-122.022;2022-08-19T10:14:02;9.7;;;4.4;;
73421;SDS011;61637;47.760;-122.022;2022-08-19T10:16:05;16.9;;;4.6;;
73421;SDS011;61637;47.760;-122.022;2022-08-19T10:18:01;10.5;;;4.7;;
73421;SDS011;61637;47.760;-122.022;2022-08-19T10:20:01;9.6;;;4.7;;
73421;SDS011;61637;47.760;-122.022;2022-08-19T10:22:04;10.4;;;4.5;;
73421;SDS011;61637;47.760;-122.022;2022-08-19T10:24:03;9.4;;;4.6;;
73421;SDS011;61637;47.760;-122.022;2022-08-19T10:26:01;9.7;;;4.7;;
73421;SDS011;61637;47.760;-122.022;2022-08-19T10:28:00;10.5;;;4.9;;
73421;SDS011;61637;47.760;-122.022;2022-08-19T10:30:00;9.3;;;4.5;;
73421;SDS011;61637;47.760;-122.022;2022-08-19T10:32:02;14.7;;;4.4;;
73421;SDS011;61637;47.760;-122.022;2022-08-19T10:34:01;12.4;;;4.5;;
73421;SDS011;61637;47.760;-122.022;2022-08-19T10:36:03;11.9;;;4.6;;
73421;SDS011;61637;47.760;-122.022;2022-08-19T10:38:01;12.3;;;5.0;;
73421;SDS011;61637;47.760;-122.022;2022-08-19T10:40:00;11.8;;;4.9;;
73421;SDS011;61637;47.760;-122.022;2022-08-19T10:42:05;9.5;;;4.7;;
73421;SDS011;61637;47.760;-122.022;2022-08-19T10:44:05;9.6;;;4.5;;
73421;SDS011;61637;47.760;-122.022;2022-08-19T10:46:00;8.6;;;4.9;;
73421;SDS011;61637;47.760;-122.022;2022-08-19T10:48:01;12.0;;;5.0;;
73421;SDS011;61637;47.760;-122.022;2022-08-19T10:50:02;9.6;;;4.9;;
73421;SDS011;61637;47.760;-122.022;2022-08-19T10:52:00;8.9;;;4.4;;
73421;SDS011;61637;47.760;-122.022;2022-08-19T10:54:02;12.7;;;5.0;;
73421;SDS011;61637;47.760;-122.022;2022-08-19T10:56:00;10.2;;;4.9;;
73421;SDS011;61637;47.760;-122.022;2022-08-19T10:58:00;10.1;;;4.6;;
73421;SDS011;61637;47.760;-122.022;2022-08-19T11:00:00;10.1;;;4.3;;
73421;SDS011;61637;47.760;-122.022;2022-08-19T11:02:02;11.7;;;4.5;;
73421;SDS011;61637;47.760;-122.022;2022-08-19T11:04:01;8.7;;;4.3;;
73421;SDS011;61637;47.760;-122.022;2022-08-19T11:06:03;13.8;;;4.9;;
73421;SDS011;61637;47.760;-122.022;2022-08-19T11:08:00;9.8;;;4.6;;
73421;SDS011;61637;47.760;-122.022;2022-08-19T11:10:00;9.7;;;4.5;;
73421;SDS011;61637;47.760;-122.022;2022-08-19T11:12:00;9.6;;;4.7;;
73421;SDS011;61637;47.760;-122.022;2022-08-19T11:14:01;11.1;;;4.9;;
73421;SDS011;61637;47.760;-122.022;2022-08-19T11:16:02;10.0;;;4.8;;
73421;SDS011;61637;47.760;-122.022;2022-08-19T11:18:00;9.9;;;4.7;;
73421;SDS011;61637;47.760;-122.022;2022-08-19T11:20:00;9.8;;;5.1;;
73421;SDS011;61637;47.760;-122.022;2022-08-19T11:22:01;8.3;;;4.7;;
73421;SDS011;61637;47.760;-122.022;2022-08-19T11:24:05;10.1;;;4.6;;
73421;SDS011;61637;47.760;-122.022;2022-08-19T11:26:01;8.8;;;4.5;;
73421;SDS011;61637;47.760;-122.022;2022-08-19T11:28:00;9.5;;;4.9;;
73421;SDS011;61637;47.760;-122.022;2022-08-19T11:30:00;10.7;;;4.3;;
73421;SDS011;61637;47.760;-122.022;2022-08-19T11:32:04;8.2;;;4.5;;
73421;SDS011;61637;47.760;-122.022;2022-08-19T11:34:03;10.0;;;4.3;;
73421;SDS011;61637;47.760;-122.022;2022-08-19T11:36:00;10.9;;;4.9;;
73421;SDS011;61637;47.760;-122.022;2022-08-19T11:38:01;9.8;;;5.3;;
73421;SDS011;61637;47.760;-122.022;2022-08-19T11:40:00;13.3;;;4.8;;
73421;SDS011;61637;47.760;-122.022;2022-08-19T11:42:02;11.1;;;4.7;;
73421;SDS011;61637;47.760;-122.022;2022-08-19T11:44:00;9.0;;;4.7;;